Time;durP1;ratioP1;P1;durP2;ratioP2;P2;SDS_P1;SDS_P2;PMS_P1;PMS_P2;Temp;Humidity;BMP_temperature;BMP_pressure;BME280_temperature;BME280_humidity;BME280_pressure;Samples;Min_cycle;Max_cycle;Signal;HPM_P1;HPM_P2
2021/02/23 00:01:32;;;;;;;;;86.00;63.00;;;;;-0.95;90.90;102478.41;3725349;38;17981;-56
2021/02/23 00:03:58;;;;;;;;;85.25;63.50;;;;;-1.05;91.00;102475.28;3725269;38;20421;-56
2021/02/23 00:06:24;;;;;;;;;86.25;64.00;;;;;-1.05;90.94;102484.13;3725156;38;20428;-55
2021/02/23 00:08:51;;;;;;;;;81.25;58.25;;;;;-1.12;90.65;102481.75;3725092;37;20409;-57
2021/02/23 00:11:18;;;;;;;;;93.50;64.00;;;;;-1.07;90.92;102482.44;3724735;38;17963;-57
2021/02/23 00:13:45;;;;;;;;;81.00;60.75;;;;;-1.11;90.78;102479.03;3725183;37;20411;-56
2021/02/23 00:16:12;;;;;;;;;89.00;65.00;;;;;-1.09;90.98;102493.12;3725161;37;20420;-57
2021/02/23 00:18:39;;;;;;;;;78.00;60.25;;;;;-1.12;91.05;102497.69;3725237;37;20421;-56
2021/02/23 00:21:06;;;;;;;;;83.25;59.50;;;;;-1.23;90.78;102492.81;3725196;38;20431;-56
2021/02/23 00:23:37;;;;;;;;;89.00;63.00;;;;;-1.25;90.61;102493.78;3725308;37;20379;-57
2021/02/23 00:26:04;;;;;;;;;80.75;57.25;;;;;-1.28;90.76;102492.13;3725379;37;20411;-56
2021/02/23 00:28:31;;;;;;;;;83.50;63.00;;;;;-1.36;90.94;102495.06;3725144;37;20373;-56
2021/02/23 00:30:58;;;;;;;;;83.75;59.25;;;;;-1.39;90.90;102505.81;3725152;37;20406;-56
2021/02/23 00:33:29;;;;;;;;;85.25;61.00;;;;;-1.38;90.75;102507.56;3725253;37;20380;-56
2021/02/23 00:35:55;;;;;;;;;85.50;65.50;;;;;-1.37;90.91;102508.41;3725194;38;20416;-57
2021/02/23 00:38:21;;;;;;;;;83.75;61.50;;;;;-1.37;90.59;102493.34;3725075;37;17927;-57
2021/02/23 00:40:47;;;;;;;;;76.50;61.00;;;;;-1.37;90.80;102505.75;3725060;37;20407;-56
2021/02/23 00:43:14;;;;;;;;;83.75;62.75;;;;;-1.42;90.52;102507.72;3725000;38;20371;-56
2021/02/23 00:45:41;;;;;;;;;74.75;55.25;;;;;-1.37;90.59;102503.09;3725141;37;20370;-56
2021/02/23 00:48:09;;;;;;;;;81.75;58.00;;;;;-1.37;90.61;102497.78;3725150;38;20382;-56
2021/02/23 00:50:35;;;;;;;;;74.75;55.25;;;;;-1.35;90.58;102494.16;3725204;38;20374;-56
2021/02/23 01:06:32;;;;;;;;;82.50;59.75;;;;;-1.36;90.58;102505.69;3725388;38;20043;-55
2021/02/23 01:08:58;;;;;;;;;85.75;61.25;;;;;-1.40;90.69;102506.75;3725355;38;20099;-55
2021/02/23 01:11:24;;;;;;;;;86.25;60.75;;;;;-1.36;90.74;102507.50;3725482;38;20053;-54
2021/02/23 01:13:50;;;;;;;;;83.75;61.75;;;;;-1.37;90.78;102514.59;3725563;38;20081;-55
2021/02/23 01:16:16;;;;;;;;;83.75;62.75;;;;;-1.46;90.60;102508.78;3725488;38;20078;-55
2021/02/23 01:18:44;;;;;;;;;75.00;59.00;;;;;-1.53;90.75;102509.91;3725543;37;20056;-55
2021/02/23 01:21:10;;;;;;;;;82.75;62.00;;;;;-1.58;90.94;102515.44;3725568;38;20049;-54
2021/02/23 01:23:36;;;;;;;;;88.75;60.75;;;;;-1.59;90.65;102512.84;3725442;37;19990;-55
2021/02/23 01:26:03;;;;;;;;;82.25;61.25;;;;;-1.60;90.95;102519.94;3725440;38;19978;-55
2021/02/23 01:28:29;;;;;;;;;82.25;62.50;;;;;-1.55;90.70;102523.25;3725585;37;17775;-55
2021/02/23 01:30:55;;;;;;;;;77.25;60.25;;;;;-1.48;91.06;102519.44;3725561;37;17767;-55
2021/02/23 01:33:22;;;;;;;;;85.25;64.25;;;;;-1.58;91.12;102498.66;3725452;37;20092;-55
2021/02/23 01:35:48;;;;;;;;;86.50;63.50;;;;;-1.51;90.91;102514.25;3725578;37;17762;-54
2021/02/23 01:38:14;;;;;;;;;84.00;61.50;;;;;-1.47;90.97;102515.00;3725375;37;19962;-55
2021/02/23 01:40:40;;;;;;;;;88.50;64.00;;;;;-1.47;90.93;102509.69;3725477;37;17787;-56
2021/02/23 01:43:10;;;;;;;;;81.00;59.75;;;;;-1.41;90.83;102514.78;3725443;38;17762;-55
2021/02/23 01:45:37;;;;;;;;;76.50;57.50;;;;;-1.43;90.91;102519.28;3725584;38;19937;-56
2021/02/23 01:48:10;;;;;;;;;83.00;62.00;;;;;-1.39;90.71;102519.09;3725383;38;19956;-56
2021/02/23 01:50:37;;;;;;;;;84.25;60.25;;;;;-1.37;90.85;102521.69;3725738;38;19975;-55
2021/02/23 01:53:04;;;;;;;;;74.00;56.00;;;;;-1.40;90.81;102529.78;3725390;37;19958;-54
2021/02/23 01:55:31;;;;;;;;;90.50;64.00;;;;;-1.38;90.78;102523.50;3725465;37;19934;-55
2021/02/23 01:58:04;;;;;;;;;81.00;60.00;;;;;-1.35;90.92;102522.50;3725375;37;17757;-56
2021/02/23 02:00:32;;;;;;;;;85.50;62.50;;;;;-1.29;90.79;102532.03;3725465;38;17753;-55
2021/02/23 02:03:05;;;;;;;;;69.00;54.00;;;;;-1.33;90.96;102526.84;3724942;37;19956;-55
2021/02/23 02:05:32;;;;;;;;;83.50;59.25;;;;;-1.35;90.78;102522.50;3725380;38;19913;-56
2021/02/23 02:07:58;;;;;;;;;80.00;59.50;;;;;-1.28;91.09;102534.63;3725379;38;19926;-54
2021/02/23 02:10:25;;;;;;;;;73.00;56.50;;;;;-1.30;90.82;102533.81;3725317;38;19933;-55
2021/02/23 02:12:52;;;;;;;;;74.75;56.50;;;;;-1.28;90.92;102534.63;3725567;37;19918;-56
2021/02/23 02:15:19;;;;;;;;;79.50;59.00;;;;;-1.36;90.98;102542.88;3725419;38;19909;-55
2021/02/23 02:17:46;;;;;;;;;77.25;54.00;;;;;-1.36;91.00;102542.03;3725360;37;19903;-54
2021/02/23 02:20:14;;;;;;;;;77.00;58.25;;;;;-1.35;91.03;102533.12;3725171;37;19901;-54
2021/02/23 02:22:42;;;;;;;;;81.25;59.00;;;;;-1.27;90.92;102541.66;3725251;38;19931;-54
2021/02/23 02:25:18;;;;;;;;;75.50;56.00;;;;;-1.26;90.98;102542.53;3725520;37;19903;-55
2021/02/23 02:27:53;;;;;;;;;76.50;60.75;;;;;-1.25;90.89;102545.13;3725291;37;19897;-54
2021/02/23 02:30:25;;;;;;;;;82.25;57.50;;;;;-1.29;91.15;102532.03;3725496;37;19894;-54
2021/02/23 02:32:51;;;;;;;;;66.50;53.75;;;;;-1.29;91.08;102532.91;3725409;37;19899;-54
2021/02/23 02:35:22;;;;;;;;;74.00;55.25;;;;;-1.18;91.26;102546.62;3725498;38;19896;-55
2021/02/23 02:37:48;;;;;;;;;73.00;53.50;;;;;-1.13;91.15;102547.31;3725419;38;19905;-54
2021/02/23 02:40:17;;;;;;;;;75.75;56.25;;;;;-1.14;90.98;102545.59;3725429;37;19883;-55
2021/02/23 02:42:44;;;;;;;;;81.25;54.50;;;;;-1.16;90.94;102544.78;3725110;38;19908;-54
2021/02/23 02:45:14;;;;;;;;;80.50;60.75;;;;;-1.17;91.26;102539.53;3725337;37;19875;-56
2021/02/23 02:47:41;;;;;;;;;80.50;56.50;;;;;-1.19;90.83;102547.56;3725386;38;19873;-55
2021/02/23 02:50:09;;;;;;;;;70.25;56.25;;;;;-1.14;90.97;102544.72;3726488;37;19877;-54
2021/02/23 02:52:35;;;;;;;;;74.50;54.50;;;;;-1.15;90.88;102554.47;3725570;37;19863;-54
2021/02/23 02:55:05;;;;;;;;;83.50;56.00;;;;;-1.18;90.83;102556.41;3725428;37;19853;-55
2021/02/23 02:57:31;;;;;;;;;69.00;51.75;;;;;-1.24;90.78;102556.63;3725574;37;19894;-55
2021/02/23 02:59:58;;;;;;;;;74.00;55.75;;;;;-1.22;90.84;102568.94;3725241;37;19846;-55
2021/02/23 03:02:24;;;;;;;;;78.25;56.00;;;;;-1.25;91.11;102566.38;3725489;38;19876;-55
2021/02/23 03:05:02;;;;;;;;;73.50;55.00;;;;;-1.27;90.91;102573.53;3725588;37;19826;-55
2021/02/23 03:07:29;;;;;;;;;76.25;56.00;;;;;-1.39;91.08;102566.03;3725482;38;19866;-55
2021/02/23 03:09:56;;;;;;;;;77.50;56.50;;;;;-1.41;90.81;102562.56;3725198;37;19858;-55
2021/02/23 03:12:24;;;;;;;;;74.75;56.25;;;;;-1.36;90.75;102561.47;3725469;37;20306;-54
2021/02/23 03:14:54;;;;;;;;;75.75;52.25;;;;;-1.39;91.04;102568.69;3725433;38;19854;-55
2021/02/23 03:17:21;;;;;;;;;77.25;56.25;;;;;-1.38;90.93;102568.63;3725513;38;19835;-54
2021/02/23 03:19:49;;;;;;;;;82.25;58.50;;;;;-1.31;91.23;102558.66;3725397;37;19837;-55
2021/02/23 03:22:15;;;;;;;;;78.50;57.50;;;;;-1.23;91.29;102567.19;3725330;37;19844;-54
2021/02/23 03:24:48;;;;;;;;;90.75;60.75;;;;;-1.17;90.99;102566.09;3725544;37;19832;-55
2021/02/23 03:27:14;;;;;;;;;80.00;55.00;;;;;-1.18;91.21;102577.66;3725471;37;19852;-55
2021/02/23 03:29:40;;;;;;;;;77.25;55.25;;;;;-1.25;91.17;102581.47;3725455;37;19837;-54
2021/02/23 03:32:09;;;;;;;;;89.00;62.75;;;;;-1.38;91.24;102576.59;3725493;37;20020;-54
2021/02/23 03:34:35;;;;;;;;;89.00;64.00;;;;;-1.42;91.27;102574.12;3725488;38;19825;-54
2021/02/23 03:37:03;;;;;;;;;85.75;61.50;;;;;-1.53;90.94;102576.31;3725308;37;19813;-55
2021/02/23 03:39:30;;;;;;;;;84.50;60.50;;;;;-1.50;91.44;102576.19;3725398;37;19795;-54
2021/02/23 03:41:56;;;;;;;;;83.00;59.25;;;;;-1.42;91.48;102585.59;3725616;38;19790;-54
2021/02/23 03:44:22;;;;;;;;;83.50;64.25;;;;;-1.35;91.22;102587.13;3725576;37;19819;-56
2021/02/23 03:46:48;;;;;;;;;81.75;59.50;;;;;-1.34;91.44;102590.62;3725507;37;19815;-55
2021/02/23 03:49:16;;;;;;;;;85.25;60.00;;;;;-1.31;91.18;102587.88;3725668;38;19795;-54
2021/02/23 03:51:42;;;;;;;;;94.25;67.50;;;;;-1.30;91.19;102596.69;3725577;37;19808;-55
2021/02/23 03:54:10;;;;;;;;;85.00;60.75;;;;;-1.48;91.27;102577.00;3725675;38;17605;-55
2021/02/23 03:56:36;;;;;;;;;83.00;62.75;;;;;-1.45;91.18;102596.34;3725503;37;19798;-55
2021/02/23 03:59:02;;;;;;;;;88.00;65.00;;;;;-1.66;91.25;102591.84;3725521;38;19806;-54
2021/02/23 04:01:29;;;;;;;;;75.50;57.25;;;;;-1.76;91.31;102596.63;3725615;37;17599;-55
2021/02/23 04:03:55;;;;;;;;;81.50;60.25;;;;;-1.80;91.26;102595.00;3725602;38;19792;-55
2021/02/23 04:06:22;;;;;;;;;84.50;60.75;;;;;-1.84;91.15;102601.31;3725577;38;19768;-55
2021/02/23 04:08:48;;;;;;;;;90.25;66.00;;;;;-1.85;91.16;102596.94;3725426;37;19783;-56
2021/02/23 04:11:14;;;;;;;;;81.50;64.75;;;;;-1.80;91.42;102589.69;3725167;38;19766;-54
2021/02/23 04:13:40;;;;;;;;;76.50;59.00;;;;;-1.76;91.57;102590.44;3725611;38;19758;-55
2021/02/23 04:16:07;;;;;;;;;89.00;63.00;;;;;-1.61;91.21;102610.25;3725607;37;19782;-54
2021/02/23 04:18:33;;;;;;;;;92.00;66.00;;;;;-1.74;91.26;102617.78;3725537;37;19941;-55
2021/02/23 04:21:00;;;;;;;;;82.25;59.75;;;;;-1.79;91.51;102617.09;3725434;37;17587;-56
2021/02/23 04:23:27;;;;;;;;;92.50;64.25;;;;;-1.81;91.44;102617.13;3725275;38;20422;-55
2021/02/23 04:25:56;;;;;;;;;94.75;65.50;;;;;-1.74;91.58;102628.41;3725242;38;20527;-55
2021/02/23 04:28:22;;;;;;;;;93.00;65.50;;;;;-1.85;91.30;102612.00;3724871;38;20494;-55
2021/02/23 04:30:49;;;;;;;;;82.50;60.50;;;;;-1.81;91.40;102630.41;3725103;38;20394;-57
2021/02/23 04:33:16;;;;;;;;;88.75;67.25;;;;;-1.77;91.45;102642.66;3725148;37;20402;-55
2021/02/23 04:35:42;;;;;;;;;88.00;64.00;;;;;-1.73;91.36;102638.09;3725133;37;20421;-55
2021/02/23 04:38:08;;;;;;;;;80.75;56.50;;;;;-1.69;91.39;102639.72;3725527;37;18607;-55
2021/02/23 04:40:34;;;;;;;;;84.50;63.50;;;;;-1.67;91.65;102644.06;3726634;37;21393;-55
2021/02/23 04:43:02;;;;;;;;;79.50;57.25;;;;;-1.68;91.46;102641.47;3725565;38;18608;-55
2021/02/23 04:45:30;;;;;;;;;84.25;60.25;;;;;-1.94;91.57;102633.53;3725185;37;21391;-54
2021/02/23 04:47:57;;;;;;;;;78.00;61.25;;;;;-2.01;91.24;102651.44;3725366;37;21372;-54
2021/02/23 04:50:23;;;;;;;;;71.00;52.00;;;;;-2.02;91.67;102644.41;3725414;37;20413;-55
2021/02/23 04:52:49;;;;;;;;;78.25;57.50;;;;;-2.11;91.36;102636.78;3725237;38;21372;-55
2021/02/23 04:55:16;;;;;;;;;88.50;64.00;;;;;-2.18;91.29;102643.22;3725161;37;21391;-55
2021/02/23 04:57:42;;;;;;;;;78.25;60.50;;;;;-2.15;91.42;102635.16;3724825;37;21374;-55
2021/02/23 05:00:09;;;;;;;;;80.00;60.00;;;;;-2.10;91.62;102635.88;3725227;38;21368;-55
2021/02/23 05:02:36;;;;;;;;;85.00;59.00;;;;;-2.17;91.36;102629.03;3725245;38;21362;-54
2021/02/23 05:05:04;;;;;;;;;80.75;60.00;;;;;-2.11;91.45;102629.69;3725303;37;21381;-56
2021/02/23 05:07:30;;;;;;;;;78.25;60.25;;;;;-2.05;91.55;102629.47;3725303;37;21340;-55
2021/02/23 05:09:56;;;;;;;;;80.50;59.25;;;;;-1.89;91.54;102635.12;3725151;38;21384;-55
2021/02/23 05:12:23;;;;;;;;;87.75;63.25;;;;;-1.79;91.52;102633.87;3725128;37;21341;-56
2021/02/23 05:14:49;;;;;;;;;80.00;59.50;;;;;-1.98;91.47;102627.47;3725112;38;21344;-55
2021/02/23 05:17:17;;;;;;;;;77.50;58.75;;;;;-1.96;91.38;102628.28;3725191;37;21350;-55
2021/02/23 05:19:43;;;;;;;;;75.25;56.75;;;;;-1.85;91.14;102628.78;3725202;38;18561;-56
2021/02/23 05:22:09;;;;;;;;;85.75;64.50;;;;;-1.82;91.21;102623.37;3725305;38;20653;-55
2021/02/23 05:24:35;;;;;;;;;82.75;58.25;;;;;-1.72;91.14;102629.22;3725393;37;20692;-56
2021/02/23 05:27:02;;;;;;;;;83.75;61.75;;;;;-1.69;91.15;102639.72;3725443;37;20676;-55
2021/02/23 05:29:30;;;;;;;;;90.50;67.00;;;;;-1.75;91.40;102639.94;3725456;38;20677;-55
2021/02/23 05:31:56;;;;;;;;;90.25;65.75;;;;;-1.89;90.94;102642.22;3725560;37;18464;-56
2021/02/23 05:34:22;;;;;;;;;87.75;64.25;;;;;-1.84;91.19;102651.75;3725379;38;18470;-56
2021/02/23 05:36:49;;;;;;;;;85.75;63.00;;;;;-1.87;90.97;102643.03;3725634;37;20735;-55
2021/02/23 05:39:15;;;;;;;;;83.00;62.75;;;;;-1.91;90.88;102644.91;3725687;37;18453;-55
2021/02/23 05:41:41;;;;;;;;;88.25;63.75;;;;;-2.03;91.07;102646.19;3725626;38;20661;-55
2021/02/23 05:44:08;;;;;;;;;86.00;60.75;;;;;-2.18;90.87;102632.59;3725095;38;20653;-55
2021/02/23 05:46:35;;;;;;;;;86.25;63.75;;;;;-2.02;90.86;102645.28;3724982;37;18467;-56
2021/02/23 05:49:05;;;;;;;;;90.25;64.50;;;;;-2.00;91.18;102647.88;3724600;37;20658;-56
2021/02/23 05:51:33;;;;;;;;;87.00;66.50;;;;;-1.96;91.06;102641.56;3725580;37;18443;-54
2021/02/23 05:53:59;;;;;;;;;92.75;65.00;;;;;-1.82;91.22;102652.56;3725637;37;18444;-55
2021/02/23 05:56:26;;;;;;;;;86.25;64.25;;;;;-1.72;91.16;102658.41;3725597;37;18428;-55
2021/02/23 05:58:53;;;;;;;;;95.75;67.75;;;;;-1.89;91.04;102659.00;3725645;38;20640;-56
2021/02/23 06:01:19;;;;;;;;;87.00;64.50;;;;;-1.75;91.14;102661.19;3725605;37;18450;-54
2021/02/23 06:03:57;;;;;;;;;92.00;68.75;;;;;-1.73;90.98;102654.91;3725648;37;20653;-55
2021/02/23 06:06:25;;;;;;;;;95.25;66.25;;;;;-1.68;91.17;102657.41;3725763;37;18446;-55
2021/02/23 06:08:52;;;;;;;;;94.00;71.00;;;;;-1.67;91.16;102675.94;3725781;37;18429;-57
2021/02/23 06:11:26;;;;;;;;;92.25;67.00;;;;;-1.68;90.94;102679.50;3725763;37;18430;-55
2021/02/23 06:13:53;;;;;;;;;92.25;67.75;;;;;-1.72;91.14;102684.97;3725848;37;18425;-57
2021/02/23 06:16:25;;;;;;;;;96.25;66.75;;;;;-1.82;91.03;102680.87;3725688;38;18396;-56
2021/02/23 06:18:56;;;;;;;;;94.50;69.25;;;;;-1.90;90.90;102681.16;3725793;37;18417;-57
2021/02/23 06:21:25;;;;;;;;;97.25;69.25;;;;;-1.90;90.69;102683.81;3725571;38;18388;-55
2021/02/23 06:23:52;;;;;;;;;87.50;65.75;;;;;-1.98;90.60;102693.78;3725570;37;18408;-58
2021/02/23 06:26:26;;;;;;;;;91.50;69.00;;;;;-1.91;90.79;102698.00;3725572;37;18408;-55
2021/02/23 06:29:00;;;;;;;;;98.75;72.00;;;;;-2.06;90.80;102683.44;3725562;37;18408;-57
2021/02/23 06:31:58;;;;;;;;;92.25;68.00;;;;;-1.86;90.97;102704.00;3726265;38;18392;-56
2021/02/23 06:34:26;;;;;;;;;85.00;63.00;;;;;-1.83;90.82;102713.66;3725632;37;18372;-56
2021/02/23 06:37:06;;;;;;;;;93.00;68.50;;;;;-1.88;90.64;102707.63;3725603;38;18389;-56
2021/02/23 06:39:40;;;;;;;;;90.25;68.75;;;;;-1.76;90.53;102710.75;3725540;38;18360;-56
2021/02/23 06:42:24;;;;;;;;;101.25;72.25;;;;;-1.63;90.50;102708.53;3725568;38;18361;-58
2021/02/23 06:44:55;;;;;;;;;96.00;70.00;;;;;-1.61;90.69;102709.38;3725579;38;18376;-57
2021/02/23 06:47:35;;;;;;;;;76.75;55.25;;;;;-1.55;90.67;102721.53;3725852;37;18355;-56
2021/02/23 06:50:28;;;;;;;;;91.25;67.25;;;;;-1.48;90.50;102729.22;3725737;37;18370;-57
2021/02/23 06:53:01;;;;;;;;;85.75;67.00;;;;;-1.55;90.20;102732.16;3725323;37;18343;-57
2021/02/23 06:55:34;;;;;;;;;88.50;64.50;;;;;-1.59;89.95;102723.44;3725781;38;18357;-58
2021/02/23 06:58:01;;;;;;;;;97.00;70.25;;;;;-1.54;90.12;102732.09;3725430;38;18341;-57
2021/02/23 07:00:29;;;;;;;;;86.75;64.75;;;;;-1.54;90.20;102721.47;3725605;37;18332;-57
2021/02/23 07:02:57;;;;;;;;;86.00;65.00;;;;;-1.41;89.87;102733.41;3725286;37;18360;-56
2021/02/23 07:05:24;;;;;;;;;95.50;68.50;;;;;-1.30;89.90;102742.78;3725475;38;18326;-57
2021/02/23 07:07:52;;;;;;;;;86.50;66.75;;;;;-1.26;89.71;102739.13;3725669;38;18338;-56
2021/02/23 07:10:30;;;;;;;;;89.00;65.75;;;;;-1.39;89.73;102731.56;3728093;37;18350;-57
2021/02/23 07:12:58;;;;;;;;;98.00;70.75;;;;;-1.50;89.60;102735.50;3725608;38;18341;-56
2021/02/23 07:15:29;;;;;;;;;96.75;67.75;;;;;-1.41;89.36;102740.50;3725518;37;18321;-56
2021/02/23 07:18:21;;;;;;;;;89.00;63.00;;;;;-1.25;89.49;102744.38;3725671;37;18313;-55
2021/02/23 07:20:49;;;;;;;;;95.25;67.75;;;;;-1.23;89.50;102741.66;3725622;37;18327;-57
2021/02/23 07:23:16;;;;;;;;;99.00;71.25;;;;;-1.22;89.56;102744.25;3725339;37;18302;-55
2021/02/23 07:25:56;;;;;;;;;97.25;69.50;;;;;-1.03;89.47;102752.41;3725437;38;18321;-57
2021/02/23 07:28:49;;;;;;;;;88.00;65.75;;;;;-0.97;89.35;102759.31;3725543;37;18328;-55
2021/02/23 07:31:45;;;;;;;;;100.00;73.25;;;;;-0.87;89.16;102756.25;3725267;37;18306;-57
2021/02/23 07:34:40;;;;;;;;;102.75;82.00;;;;;-0.74;89.06;102760.19;3724992;37;18307;-56
2021/02/23 07:37:08;;;;;;;;;95.00;70.50;;;;;-0.64;89.12;102751.87;3725199;38;18288;-58
2021/02/23 07:39:43;;;;;;;;;102.25;79.75;;;;;-0.49;89.28;102756.59;3725623;38;18298;-55
2021/02/23 07:42:43;;;;;;;;;103.50;76.25;;;;;-0.57;88.90;102742.75;3725665;38;18295;-57
2021/02/23 07:45:34;;;;;;;;;106.00;78.50;;;;;-0.36;89.00;102749.88;3725753;37;18281;-56
2021/02/23 07:48:00;;;;;;;;;100.00;75.50;;;;;-0.12;88.93;102753.38;3725576;38;18302;-56
2021/02/23 07:50:46;;;;;;;;;103.00;81.50;;;;;-0.23;88.92;102723.66;3725588;38;18285;-55
2021/02/23 07:53:33;;;;;;;;;95.25;70.75;;;;;0.07;88.65;102761.47;3725569;37;18308;-55
2021/02/23 07:56:00;;;;;;;;;100.75;80.00;;;;;0.23;88.82;102758.13;3725658;37;18293;-58
2021/02/23 07:58:45;;;;;;;;;98.75;79.50;;;;;0.33;88.32;102754.16;3725732;37;18271;-58
2021/02/23 08:01:12;;;;;;;;;105.00;81.25;;;;;0.50;88.53;102756.09;3725724;37;18259;-58
2021/02/23 08:03:57;;;;;;;;;99.50;76.00;;;;;0.49;87.92;102754.38;3725801;38;18278;-57
2021/02/23 08:06:37;;;;;;;;;113.00;85.00;;;;;0.76;88.46;102754.97;3725355;38;18238;-60
2021/02/23 08:09:08;;;;;;;;;102.75;86.50;;;;;0.71;87.88;102759.63;3725726;38;18244;-57
2021/02/23 08:11:34;;;;;;;;;112.00;88.75;;;;;0.76;87.46;102765.63;3725628;38;18259;-57
2021/02/23 08:14:01;;;;;;;;;110.75;88.50;;;;;0.79;87.42;102757.50;3725659;38;18239;-57
2021/02/23 08:16:33;;;;;;;;;100.75;80.75;;;;;0.94;87.56;102763.97;3725648;37;18242;-57
2021/02/23 08:19:01;;;;;;;;;106.50;90.00;;;;;0.88;87.17;102767.75;3725607;37;18231;-58
2021/02/23 08:21:39;;;;;;;;;114.00;85.75;;;;;0.88;87.17;102762.44;3725665;37;18249;-58
2021/02/23 08:24:14;;;;;;;;;100.00;84.25;;;;;0.80;86.55;102771.69;3726134;38;18228;-56
2021/02/23 08:26:51;;;;;;;;;102.50;83.00;;;;;0.77;86.39;102761.16;3725653;37;18226;-56
2021/02/23 08:29:19;;;;;;;;;102.75;85.00;;;;;0.83;86.67;102764.44;3725620;37;18225;-57
2021/02/23 08:31:46;;;;;;;;;107.25;89.00;;;;;0.82;86.37;102754.69;3725701;37;18239;-57
2021/02/23 08:34:12;;;;;;;;;109.50;87.00;;;;;0.92;86.42;102756.03;3725512;38;18222;-57
2021/02/23 08:36:51;;;;;;;;;107.00;89.50;;;;;1.00;86.23;102753.03;3725784;37;18239;-57
2021/02/23 08:39:25;;;;;;;;;106.50;87.75;;;;;0.99;86.38;102754.81;3725561;37;18221;-57
2021/02/23 08:41:52;;;;;;;;;107.75;90.25;;;;;0.89;85.69;102761.50;3725736;38;18200;-57
2021/02/23 08:44:32;;;;;;;;;109.50;85.50;;;;;0.76;85.19;102759.44;3725867;38;18221;-56
2021/02/23 08:47:11;;;;;;;;;106.00;94.25;;;;;0.75;85.14;102760.34;3725740;38;18213;-57
2021/02/23 08:49:40;;;;;;;;;117.50;95.50;;;;;0.81;85.26;102744.09;3725573;38;18185;-57
2021/02/23 08:52:07;;;;;;;;;112.00;88.75;;;;;1.01;85.43;102751.22;3725822;37;18205;-57
2021/02/23 08:54:34;;;;;;;;;106.75;88.50;;;;;1.10;85.11;102751.66;3725550;37;18183;-57
2021/02/23 08:57:00;;;;;;;;;117.00;96.75;;;;;1.37;85.22;102760.22;3725316;37;18198;-56
2021/02/23 08:59:29;;;;;;;;;115.00;97.25;;;;;1.64;85.34;102750.03;3725910;37;18206;-56
2021/02/23 09:01:58;;;;;;;;;115.00;91.25;;;;;1.77;85.28;102761.84;3725745;38;18187;-55
2021/02/23 09:04:29;;;;;;;;;120.75;96.50;;;;;1.86;85.00;102753.41;3725758;37;18201;-56
2021/02/23 09:07:10;;;;;;;;;110.75;97.75;;;;;2.04;84.76;102762.34;3725696;38;18192;-56
2021/02/23 09:09:56;;;;;;;;;121.00;99.75;;;;;2.19;84.78;102758.91;3725829;38;18179;-56
2021/02/23 09:12:25;;;;;;;;;124.00;101.50;;;;;2.27;84.21;102767.41;3725895;37;18159;-56
2021/02/23 09:15:05;;;;;;;;;111.50;93.75;;;;;2.35;83.99;102769.69;3726072;37;18187;-56
2021/02/23 09:17:40;;;;;;;;;128.25;99.50;;;;;2.54;83.87;102780.34;3725704;38;18175;-57
2021/02/23 09:20:08;;;;;;;;;129.75;103.25;;;;;2.63;83.57;102770.00;3725652;37;18148;-57
2021/02/23 09:22:37;;;;;;;;;114.75;100.25;;;;;2.75;83.19;102767.66;3725732;38;18168;-57
2021/02/23 09:25:21;;;;;;;;;124.00;102.50;;;;;2.90;83.34;102773.09;3725477;37;18167;-58
2021/02/23 09:27:47;;;;;;;;;122.00;100.00;;;;;2.99;83.24;102764.56;3725836;37;18168;-55
2021/02/23 09:30:28;;;;;;;;;128.50;108.25;;;;;3.19;82.93;102779.56;3725892;38;18135;-56
2021/02/23 09:32:55;;;;;;;;;133.75;111.00;;;;;3.30;82.17;102787.00;3725574;37;18212;-58
2021/02/23 09:35:22;;;;;;;;;124.50;97.00;;;;;3.38;81.85;102778.56;3725499;38;18154;-56
2021/02/23 09:37:51;;;;;;;;;136.50;104.00;;;;;3.45;81.21;102777.28;3725477;38;18154;-58
2021/02/23 09:40:39;;;;;;;;;134.25;101.75;;;;;3.55;81.19;102771.34;3725453;37;18139;-56
2021/02/23 09:43:17;;;;;;;;;130.00;106.75;;;;;3.64;80.72;102772.63;3725474;38;18135;-57
2021/02/23 09:45:55;;;;;;;;;148.00;108.25;;;;;3.50;79.03;102772.56;3725651;37;18135;-58
2021/02/23 09:48:33;;;;;;;;;116.50;101.25;;;;;3.52;79.40;102768.84;3725613;37;18144;-57
2021/02/23 09:51:01;;;;;;;;;130.75;101.25;;;;;3.65;78.84;102771.69;3725694;38;18110;-57
2021/02/23 09:53:38;;;;;;;;;117.75;102.25;;;;;3.78;78.93;102763.84;3725661;37;18115;-58
2021/02/23 09:56:10;;;;;;;;;124.00;105.75;;;;;3.96;78.64;102761.00;3725705;37;18099;-57
2021/02/23 09:58:37;;;;;;;;;127.00;104.25;;;;;4.08;78.49;102758.56;3725868;37;18110;-58
2021/02/23 10:01:07;;;;;;;;;128.25;103.25;;;;;4.20;77.76;102758.69;3725681;37;18127;-58
2021/02/23 10:03:45;;;;;;;;;132.00;104.00;;;;;4.38;77.99;102758.59;3725780;38;18096;-57
2021/02/23 10:06:16;;;;;;;;;126.75;103.00;;;;;4.51;77.26;102768.50;3725752;38;18106;-57
2021/02/23 10:08:52;;;;;;;;;137.50;109.50;;;;;4.66;77.49;102772.13;3725843;37;18085;-58
2021/02/23 10:11:28;;;;;;;;;135.00;109.00;;;;;4.82;76.92;102761.31;3725856;38;18077;-58
2021/02/23 10:14:03;;;;;;;;;140.75;113.50;;;;;4.94;76.73;102758.75;3726051;37;18091;-57
2021/02/23 10:16:46;;;;;;;;;130.00;112.75;;;;;5.10;76.74;102763.19;3725820;38;18101;-58
2021/02/23 10:19:14;;;;;;;;;132.75;109.50;;;;;5.18;76.14;102761.75;3725862;37;18089;-58
2021/02/23 10:21:42;;;;;;;;;125.75;105.50;;;;;5.29;75.45;102758.37;3725734;37;18077;-56
2021/02/23 10:24:09;;;;;;;;;120.25;97.50;;;;;5.26;74.69;102755.87;3725653;37;18063;-57
2021/02/23 10:26:41;;;;;;;;;120.75;103.25;;;;;5.32;73.84;102761.72;3725688;37;18091;-56
2021/02/23 10:29:09;;;;;;;;;126.50;105.00;;;;;5.42;73.40;102763.84;3725766;38;18062;-55
2021/02/23 10:31:37;;;;;;;;;115.25;101.75;;;;;5.41;72.42;102760.28;3725790;37;18085;-56
2021/02/23 10:34:03;;;;;;;;;116.00;98.25;;;;;5.42;71.92;102756.66;3725682;37;18080;-57
2021/02/23 10:36:29;;;;;;;;;108.75;94.50;;;;;5.51;71.45;102757.91;3725772;37;18053;-56
2021/02/23 10:38:56;;;;;;;;;126.00;101.25;;;;;5.43;71.10;102755.69;3725780;38;18042;-56
2021/02/23 10:41:24;;;;;;;;;122.00;102.75;;;;;5.36;71.05;102732.00;3725847;38;18072;-57
2021/02/23 10:43:50;;;;;;;;;122.75;102.75;;;;;5.53;71.12;102755.97;3725649;38;18058;-56
2021/02/23 10:46:16;;;;;;;;;119.50;97.75;;;;;5.68;71.37;102741.56;3725696;37;18033;-56
2021/02/23 10:48:43;;;;;;;;;107.50;95.75;;;;;5.85;71.20;102751.22;3725858;38;18384;-57
2021/02/23 10:51:09;;;;;;;;;101.25;80.75;;;;;5.92;68.87;102731.06;3725592;38;18050;-55
2021/02/23 10:53:36;;;;;;;;;101.25;82.00;;;;;6.06;67.72;102739.09;3725622;37;18039;-57
2021/02/23 10:56:02;;;;;;;;;110.00;88.00;;;;;6.06;67.07;102732.84;3725625;37;18034;-58
2021/02/23 10:58:29;;;;;;;;;100.00;86.00;;;;;6.15;67.73;102730.44;3725723;37;18293;-57
2021/02/23 11:00:55;;;;;;;;;76.75;58.50;;;;;6.24;66.32;102737.00;3725649;37;18042;-59
2021/02/23 11:03:21;;;;;;;;;95.25;83.50;;;;;6.32;66.47;102727.44;3725693;37;18015;-57
2021/02/23 11:05:50;;;;;;;;;92.25;79.50;;;;;6.43;65.51;102726.72;3725572;38;18029;-57
2021/02/23 11:08:16;;;;;;;;;108.25;92.00;;;;;6.55;65.87;102725.91;3725660;37;18018;-56
2021/02/23 11:10:42;;;;;;;;;94.25;80.00;;;;;6.63;65.16;102726.25;3725023;38;18037;-57
2021/02/23 11:13:09;;;;;;;;;93.25;80.75;;;;;6.63;63.85;102711.94;3725354;38;17995;-57
2021/02/23 11:15:36;;;;;;;;;96.25;80.50;;;;;6.75;64.36;102707.53;3725495;38;18012;-56
2021/02/23 11:18:03;;;;;;;;;108.75;85.75;;;;;6.91;64.33;102710.84;3725414;37;18018;-55
2021/02/23 11:20:32;;;;;;;;;105.75;84.25;;;;;7.01;64.42;102703.84;3725196;37;18008;-56
2021/02/23 11:22:58;;;;;;;;;106.25;91.00;;;;;7.18;65.12;102706.22;3725230;38;17986;-57
2021/02/23 11:25:25;;;;;;;;;115.00;93.75;;;;;7.31;64.59;102711.56;3725514;38;17979;-56
2021/02/23 11:27:51;;;;;;;;;114.50;99.25;;;;;7.37;65.26;102705.75;3725387;38;18006;-56
2021/02/23 11:30:20;;;;;;;;;129.50;104.00;;;;;7.40;65.05;102697.44;3725615;37;17982;-55
2021/02/23 11:32:47;;;;;;;;;104.00;92.75;;;;;7.60;64.45;102712.16;3725477;37;18023;-56
2021/02/23 11:35:15;;;;;;;;;108.75;90.75;;;;;7.35;63.86;102709.53;3725577;38;17997;-56